Time,TemperatureF,DewpointF,PressureIn,WindDirection,WindDirectionDegrees,WindSpeedMPH,WindSpeedGustMPH,Humidity,HourlyPrecipIn,Conditions,Clouds,dailyrainin,SoftwareType,DateUTC
2013-01-13 00:02:00,34.0,-99.9,-100.00,North,-999,-999.0,-999.0,-999,-99.99,,,-99.99,,2013-01-13 08:02:00,
2013-01-13 00:11:00,31.0,5.0,-100.00,North,-999,-999.0,-999.0,32,-99.99,,,0.00,,2013-01-13 08:11:00,
2013-01-13 00:22:00,31.0,5.0,-100.00,North,-999,-999.0,-999.0,32,-99.99,,,0.00,,2013-01-13 08:22:00,
2013-01-13 00:32:00,31.0,5.0,-100.00,North,-999,-999.0,-999.0,32,-99.99,,,0.00,,2013-01-13 08:32:00,
2013-01-13 01:43:00,29.0,-99.9,-100.00,North,-999,-999.0,-999.0,-999,-99.99,,,-99.99,,2013-01-13 09:43:00,
2013-01-13 01:53:00,29.0,-99.9,-100.00,North,-999,-999.0,-999.0,-999,-99.99,,,-99.99,,2013-01-13 09:53:00,
2013-01-13 02:03:00,29.0,-99.9,-100.00,North,-999,-999.0,-999.0,-999,-99.99,,,-99.99,,2013-01-13 10:03:00,
2013-01-13 02:12:00,29.0,-99.9,-100.00,North,-999,-999.0,-999.0,-999,-99.99,,,-99.99,,2013-01-13 10:12:00,
2013-01-13 02:33:00,27.0,-99.9,-100.00,North,-999,-999.0,-999.0,-999,-99.99,,,-99.99,,2013-01-13 10:33:00,
2013-01-13 03:12:00,26.0,7.0,-100.00,North,-999,-999.0,-999.0,43,-99.99,,,-99.99,,2013-01-13 11:12:00,
2013-01-13 03:22:00,26.0,7.0,-100.00,North,-999,-999.0,-999.0,43,-99.99,,,-99.99,,2013-01-13 11:22:00,
2013-01-13 03:32:00,26.0,7.0,-100.00,North,-999,-999.0,-999.0,43,-99.99,,,-99.99,,2013-01-13 11:32:00,
2013-01-13 03:43:00,28.0,-99.9,-100.00,North,-999,-999.0,-999.0,-999,-99.99,,,-99.99,,2013-01-13 11:43:00,
2013-01-13 03:53:00,28.0,-99.9,-100.00,North,-999,-999.0,-999.0,-999,-99.99,,,-99.99,,2013-01-13 11:53:00,
2013-01-13 04:03:00,28.0,-99.9,-100.00,North,-999,-999.0,-999.0,-999,-99.99,,,-99.99,,2013-01-13 12:03:00,
2013-01-13 04:53:00,26.0,-99.9,-100.00,North,-999,-999.0,-999.0,-999,-99.99,,,-99.99,,2013-01-13 12:53:00,
2013-01-13 05:03:00,26.0,-99.9,-100.00,North,-999,-999.0,-999.0,-999,-99.99,,,-99.99,,2013-01-13 13:03:00,
2013-01-13 05:12:00,26.0,-99.9,-100.00,North,-999,-999.0,-999.0,-999,-99.99,,,-99.99,,2013-01-13 13:12:00,
2013-01-13 05:22:00,26.0,-99.9,-100.00,North,-999,-999.0,-999.0,-999,-99.99,,,-99.99,,2013-01-13 13:22:00,
2013-01-13 05:33:00,28.0,-99.9,-100.00,North,-999,-999.0,-999.0,-999,-99.99,,,-99.99,,2013-01-13 13:33:00,
2013-01-13 05:43:00,28.0,-99.9,-100.00,North,-999,-999.0,-999.0,-999,-99.99,,,-99.99,,2013-01-13 13:43:00,
2013-01-13 05:53:00,28.0,-99.9,-100.00,North,-999,-999.0,-999.0,-999,-99.99,,,-99.99,,2013-01-13 13:53:00,
2013-01-13 06:12:00,29.0,5.0,-100.00,North,-999,-999.0,-999.0,36,-99.99,,,-99.99,,2013-01-13 14:12:00,
2013-01-13 06:22:00,26.0,7.0,-100.00,North,-999,-999.0,-999.0,42,-99.99,,,-99.99,,2013-01-13 14:22:00,
2013-01-13 06:33:00,26.0,7.0,-100.00,North,-999,-999.0,-999.0,42,-99.99,,,-99.99,,2013-01-13 14:33:00,
2013-01-13 06:42:00,26.0,7.0,-100.00,North,-999,-999.0,-999.0,42,-99.99,,,-99.99,,2013-01-13 14:42:00,
2013-01-13 06:52:00,26.0,7.0,-100.00,North,-999,-999.0,-999.0,42,-99.99,,,-99.99,,2013-01-13 14:52:00,
2013-01-13 07:53:00,31.0,-99.9,-100.00,North,-999,-999.0,-999.0,-999,-99.99,,,-99.99,,2013-01-13 15:53:00,
2013-01-13 08:04:00,31.0,-99.9,-100.00,North,-999,-999.0,-999.0,-999,-99.99,,,-99.99,,2013-01-13 16:04:00,
2013-01-13 08:13:00,33.0,-99.9,-100.00,North,-999,-999.0,-999.0,-999,-99.99,,,-99.99,,2013-01-13 16:13:00,
2013-01-13 08:34:00,37.0,-99.9,-100.00,North,-999,-999.0,-999.0,-999,-99.99,,,-99.99,,2013-01-13 16:34:00,
2013-01-13 09:53:00,41.0,3.0,-100.00,North,-999,-999.0,-999.0,20,-99.99,,,-99.99,,2013-01-13 17:53:00,
2013-01-13 10:03:00,40.0,-99.9,-100.00,North,-999,-999.0,-999.0,-999,-99.99,,,-99.99,,2013-01-13 18:03:00,
2013-01-13 10:12:00,40.0,-99.9,-100.00,North,-999,-999.0,-999.0,-999,-99.99,,,-99.99,,2013-01-13 18:12:00,
2013-01-13 10:23:00,40.0,-99.9,-100.00,North,-999,-999.0,-999.0,-999,-99.99,,,-99.99,,2013-01-13 18:23:00,
2013-01-13 10:33:00,40.0,-99.9,-100.00,North,-999,-999.0,-999.0,-999,-99.99,,,-99.99,,2013-01-13 18:33:00,
2013-01-13 11:03:00,39.0,-99.9,-100.00,North,-999,-999.0,-999.0,-999,-99.99,,,-99.99,,2013-01-13 19:03:00,
2013-01-13 11:12:00,39.0,-99.9,-100.00,North,-999,-999.0,-999.0,-999,-99.99,,,-99.99,,2013-01-13 19:12:00,
2013-01-13 11:33:00,39.0,-99.9,-100.00,North,-999,-999.0,-999.0,-999,-99.99,,,-99.99,,2013-01-13 19:33:00,
2013-01-13 11:43:00,41.0,-99.9,-100.00,North,-999,-999.0,-999.0,-999,-99.99,,,-99.99,,2013-01-13 19:43:00,
2013-01-13 11:53:00,41.0,-99.9,-100.00,North,-999,-999.0,-999.0,-999,-99.99,,,-99.99,,2013-01-13 19:53:00,
2013-01-13 12:03:00,-999.0,-99.9,-100.00,North,354,0.0,-999.0,-999,-99.99,,,-99.99,,2013-01-13 20:03:00,
2013-01-13 12:12:00,40.0,2.0,-100.00,North,-999,-999.0,-999.0,19,-99.99,,,0.00,,2013-01-13 20:12:00,
2013-01-13 12:22:00,40.0,2.0,-100.00,North,-999,-999.0,-999.0,19,-99.99,,,0.00,,2013-01-13 20:22:00,
2013-01-13 12:33:00,44.0,-99.9,-100.00,North,-999,-999.0,-999.0,-999,-99.99,,,-99.99,,2013-01-13 20:33:00,
2013-01-13 13:13:00,-999.0,-99.9,-100.00,NNW,348,1.0,-999.0,-999,-99.99,,,-99.99,,2013-01-13 21:13:00,
2013-01-13 13:23:00,-999.0,-99.9,-100.00,NNW,348,1.0,-999.0,-999,-99.99,,,-99.99,,2013-01-13 21:23:00,
2013-01-13 13:33:00,-999.0,-99.9,-100.00,NNW,348,1.0,-999.0,-999,-99.99,,,-99.99,,2013-01-13 21:33:00,
2013-01-13 13:43:00,-999.0,-99.9,-100.00,NNW,348,1.0,-999.0,-999,-99.99,,,-99.99,,2013-01-13 21:43:00,
2013-01-13 13:52:00,-999.0,-99.9,-100.00,North,5,0.0,-999.0,-999,-99.99,,,-99.99,,2013-01-13 21:52:00,
2013-01-13 14:13:00,-999.0,-99.9,-100.00,North,5,0.0,-999.0,-999,-99.99,,,-99.99,,2013-01-13 22:13:00,
2013-01-13 14:23:00,-999.0,-99.9,-100.00,North,5,0.0,-999.0,-999,-99.99,,,-99.99,,2013-01-13 22:23:00,
2013-01-13 14:33:00,-999.0,-99.9,-100.00,North,5,0.0,-999.0,-999,-99.99,,,-99.99,,2013-01-13 22:33:00,
2013-01-13 14:43:00,-999.0,-99.9,-100.00,North,5,0.0,-999.0,-999,-99.99,,,-99.99,,2013-01-13 22:43:00,
2013-01-13 15:12:00,-999.0,-99.9,-100.00,NNE,22,1.0,-999.0,-999,-99.99,,,-99.99,,2013-01-13 23:12:00,
2013-01-13 15:23:00,-999.0,-99.9,-100.00,NNE,22,1.0,-999.0,-999,-99.99,,,-99.99,,2013-01-13 23:23:00,
2013-01-13 15:33:00,-999.0,-99.9,-100.00,NNE,22,1.0,-999.0,-999,-99.99,,,-99.99,,2013-01-13 23:33:00,
2013-01-13 15:43:00,-999.0,-99.9,-100.00,NNE,22,1.0,-999.0,-999,-99.99,,,-99.99,,2013-01-13 23:43:00,
2013-01-13 16:13:00,-999.0,-99.9,-100.00,North,-999,1.0,-999.0,-999,-99.99,,,-99.99,,2013-01-14 00:13:00,
2013-01-13 16:23:00,-999.0,-99.9,-100.00,North,5,0.0,-999.0,-999,-99.99,,,-99.99,,2013-01-14 00:23:00,
2013-01-13 16:33:00,-999.0,-99.9,-100.00,North,5,0.0,-999.0,-999,-99.99,,,-99.99,,2013-01-14 00:33:00,
2013-01-13 16:43:00,40.0,-99.9,-100.00,North,-999,-999.0,-999.0,-999,-99.99,,,-99.99,,2013-01-14 00:43:00,
2013-01-13 16:53:00,40.0,-99.9,-100.00,North,-999,-999.0,-999.0,-999,-99.99,,,-99.99,,2013-01-14 00:53:00,
2013-01-13 17:03:00,40.0,-99.9,-100.00,North,-999,-999.0,-999.0,-999,-99.99,,,-99.99,,2013-01-14 01:03:00,
2013-01-13 17:13:00,38.0,-99.9,-100.00,North,-999,-999.0,-999.0,-999,-99.99,,,-99.99,,2013-01-14 01:13:00,
2013-01-13 17:23:00,-999.0,-99.9,-100.00,North,5,0.0,-999.0,-999,-99.99,,,-99.99,,2013-01-14 01:23:00,
2013-01-13 17:33:00,-999.0,-99.9,-100.00,North,5,0.0,-999.0,-999,-99.99,,,-99.99,,2013-01-14 01:33:00,
2013-01-13 17:43:00,-999.0,-99.9,-100.00,North,5,0.0,-999.0,-999,-99.99,,,-99.99,,2013-01-14 01:43:00,
2013-01-13 17:53:00,-999.0,-99.9,-100.00,North,5,0.0,-999.0,-999,-99.99,,,-99.99,,2013-01-14 01:53:00,
2013-01-13 18:12:00,37.0,3.0,-100.00,North,-999,1.0,-999.0,23,-99.99,,,-99.99,,2013-01-14 02:12:00,
2013-01-13 18:22:00,37.0,3.0,-100.00,North,-999,1.0,-999.0,23,-99.99,,,-99.99,,2013-01-14 02:22:00,
2013-01-13 18:32:00,37.0,3.0,-100.00,North,-999,1.0,-999.0,23,-99.99,,,-99.99,,2013-01-14 02:32:00,
2013-01-13 18:43:00,35.0,-99.9,-100.00,North,-999,-999.0,-999.0,-999,-99.99,,,-99.99,,2013-01-14 02:43:00,
2013-01-13 18:53:00,35.0,-99.9,-100.00,North,-999,-999.0,-999.0,-999,-99.99,,,-99.99,,2013-01-14 02:53:00,
2013-01-13 19:03:00,35.0,-99.9,-100.00,North,-999,-999.0,-999.0,-999,-99.99,,,-99.99,,2013-01-14 03:03:00,
2013-01-13 19:13:00,35.0,-99.9,-100.00,North,-999,-999.0,-999.0,-999,-99.99,,,-99.99,,2013-01-14 03:13:00,
2013-01-13 20:12:00,-999.0,-99.9,-100.00,North,0,7.0,-999.0,-999,-99.99,,,-99.99,,2013-01-14 04:12:00,
2013-01-13 20:22:00,-999.0,-99.9,-100.00,North,0,7.0,-999.0,-999,-99.99,,,-99.99,,2013-01-14 04:22:00,
2013-01-13 20:32:00,-999.0,-99.9,-100.00,NNE,22,5.0,-999.0,-999,-99.99,,,-99.99,,2013-01-14 04:32:00,
2013-01-13 20:42:00,-999.0,-99.9,-100.00,NNE,22,5.0,-999.0,-999,-99.99,,,-99.99,,2013-01-14 04:42:00,
2013-01-13 20:53:00,-999.0,-99.9,-100.00,NNE,22,5.0,-999.0,-999,-99.99,,,-99.99,,2013-01-14 04:53:00,
2013-01-13 21:04:00,-999.0,-99.9,-100.00,NNE,16,5.0,-999.0,-999,-99.99,,,-99.99,,2013-01-14 05:04:00,
2013-01-13 21:12:00,-999.0,-99.9,-100.00,North,354,3.0,-999.0,-999,-99.99,,,-99.99,,2013-01-14 05:12:00,
2013-01-13 21:22:00,-999.0,-99.9,-100.00,North,354,3.0,-999.0,-999,-99.99,,,-99.99,,2013-01-14 05:22:00,
2013-01-13 21:33:00,-999.0,-99.9,-100.00,North,11,6.0,-999.0,-999,-99.99,,,-99.99,,2013-01-14 05:33:00,
2013-01-13 21:43:00,-999.0,-99.9,-100.00,North,5,5.0,-999.0,26,-99.99,,,-99.99,,2013-01-14 05:43:00,
2013-01-13 21:53:00,-999.0,-99.9,-100.00,North,5,6.0,-999.0,-999,-99.99,,,-99.99,,2013-01-14 05:53:00,
2013-01-13 22:03:00,-999.0,-99.9,-100.00,North,11,4.0,-999.0,-999,-99.99,,,-99.99,,2013-01-14 06:03:00,
2013-01-13 22:12:00,-999.0,-99.9,-100.00,North,354,5.0,-999.0,-999,-99.99,,,-99.99,,2013-01-14 06:12:00,
2013-01-13 22:23:00,-999.0,-99.9,-100.00,North,354,5.0,-999.0,-999,-99.99,,,-99.99,,2013-01-14 06:23:00,
2013-01-13 22:33:00,-999.0,-99.9,-100.00,NW,315,2.0,-999.0,-999,-99.99,,,-99.99,,2013-01-14 06:33:00,
2013-01-13 22:43:00,-999.0,-99.9,-100.00,NW,315,2.0,-999.0,-999,-99.99,,,-99.99,,2013-01-14 06:43:00,
2013-01-13 22:53:00,-999.0,-99.9,-100.00,NW,315,2.0,-999.0,-999,-99.99,,,-99.99,,2013-01-14 06:53:00,
2013-01-13 23:02:00,-999.0,-99.9,-100.00,NW,315,2.0,-999.0,-999,-99.99,,,-99.99,,2013-01-14 07:02:00,
2013-01-13 23:12:00,-999.0,-99.9,-100.00,North,0,1.0,-999.0,-999,-99.99,,,-99.99,,2013-01-14 07:12:00,
2013-01-13 23:23:00,-999.0,-99.9,-100.00,North,0,1.0,-999.0,-999,-99.99,,,-99.99,,2013-01-14 07:23:00,
2013-01-13 23:33:00,-999.0,-99.9,-100.00,North,0,2.0,-999.0,-999,-99.99,,,-99.99,,2013-01-14 07:33:00,
2013-01-13 23:43:00,-999.0,-99.9,-100.00,North,0,2.0,-999.0,-999,-99.99,,,-99.99,,2013-01-14 07:43:00,
2013-01-13 23:53:00,-999.0,-99.9,-100.00,North,354,3.0,-999.0,-999,-99.99,,,-99.99,,2013-01-14 07:53:00,